Time;durP1;ratioP1;P1;durP2;ratioP2;P2;SDS_P1;SDS_P2;PMS_P1;PMS_P2;Temp;Humidity;BMP_temperature;BMP_pressure;BME280_temperature;BME280_humidity;BME280_pressure;Samples;Min_cycle;Max_cycle;Signal;HPM_P1;HPM_P2
2021/12/20 00:02:17;;;;;;;15.27;9.03;;;;;;;;;;5070031;28;20267;-89
2021/12/20 00:04:46;;;;;;;16.20;9.27;;;;;;;;;;5069564;28;20201;-90
2021/12/20 00:07:14;;;;;;;17.07;9.00;;;;;;;;;;5074528;28;20197;-90
2021/12/20 00:09:43;;;;;;;17.67;8.80;;;;;;;;;;5075507;28;20216;-90
2021/12/20 00:12:10;;;;;;;14.37;8.20;;;;;;;;;;5066096;28;20762;-90
2021/12/20 00:14:37;;;;;;;16.97;8.47;;;;;;;;;;5074426;28;20225;-90
2021/12/20 00:17:05;;;;;;;14.90;8.83;;;;;;;;;;5074977;28;20205;-91
2021/12/20 00:19:32;;;;;;;17.17;8.53;;;;;;;;;;5072944;28;20209;-90
2021/12/20 00:21:59;;;;;;;14.70;8.03;;;;;;;;;;5072499;28;20286;-90
2021/12/20 00:24:27;;;;;;;16.10;7.97;;;;;;;;;;5074831;28;20718;-90
2021/12/20 00:26:56;;;;;;;16.73;8.43;;;;;;;;;;5072975;28;20209;-90
2021/12/20 00:29:23;;;;;;;16.40;8.57;;;;;;;;;;5069426;28;20703;-90
2021/12/20 00:31:50;;;;;;;14.70;8.17;;;;;;;;;;5074481;28;20217;-90
2021/12/20 00:34:18;;;;;;;13.47;7.47;;;;;;;;;;5074719;28;20209;-90
2021/12/20 00:36:45;;;;;;;16.30;8.67;;;;;;;;;;5066906;28;20206;-90
2021/12/20 00:41:59;;;;;;;15.57;8.60;;;;;;;;;;5074075;28;20215;-90
2021/12/20 00:44:26;;;;;;;15.50;8.63;;;;;;;;;;5065851;28;20228;-90
2021/12/20 00:46:53;;;;;;;13.37;7.97;;;;;;;;;;5071270;28;20228;-90
2021/12/20 00:49:20;;;;;;;15.70;8.40;;;;;;;;;;5074735;28;20197;-90
2021/12/20 00:51:48;;;;;;;15.93;7.83;;;;;;;;;;5068063;28;20279;-91
2021/12/20 00:54:15;;;;;;;16.70;8.43;;;;;;;;;;5067041;28;20215;-91
2021/12/20 00:56:43;;;;;;;10.67;7.23;;;;;;;;;;5073549;28;20266;-90
2021/12/20 00:59:11;;;;;;;16.13;8.13;;;;;;;;;;5077781;28;20254;-90
2021/12/20 01:01:39;;;;;;;13.03;7.73;;;;;;;;;;5067735;28;20228;-90
2021/12/20 01:04:06;;;;;;;15.37;8.27;;;;;;;;;;5076521;28;20228;-90
2021/12/20 01:06:34;;;;;;;14.60;7.47;;;;;;;;;;5076107;28;20194;-90
2021/12/20 01:09:02;;;;;;;12.40;7.97;;;;;;;;;;5063120;28;20232;-90
2021/12/20 01:11:29;;;;;;;14.07;8.53;;;;;;;;;;5067884;28;20308;-91
2021/12/20 01:13:59;;;;;;;12.07;7.53;;;;;;;;;;5071601;28;20221;-90
2021/12/20 01:16:30;;;;;;;12.27;7.57;;;;;;;;;;5071007;28;20241;-90
2021/12/20 01:18:58;;;;;;;13.43;6.43;;;;;;;;;;5067542;28;20209;-90
2021/12/20 01:21:26;;;;;;;14.93;7.70;;;;;;;;;;5073418;28;20213;-90
2021/12/20 01:23:53;;;;;;;13.10;8.23;;;;;;;;;;5073914;28;20678;-90
2021/12/20 01:26:21;;;;;;;16.47;7.80;;;;;;;;;;5071673;28;20217;-90
2021/12/20 01:28:48;;;;;;;12.23;7.20;;;;;;;;;;5066172;28;20209;-90
2021/12/20 01:31:15;;;;;;;14.70;8.13;;;;;;;;;;5073455;28;20221;-90
2021/12/20 01:33:44;;;;;;;15.00;7.57;;;;;;;;;;5073689;28;20221;-90
2021/12/20 01:36:11;;;;;;;12.77;7.53;;;;;;;;;;5057480;28;20217;-90
2021/12/20 01:38:39;;;;;;;10.87;6.40;;;;;;;;;;5073164;28;20205;-90
2021/12/20 01:41:07;;;;;;;12.87;7.97;;;;;;;;;;5073624;28;20274;-90
2021/12/20 01:43:35;;;;;;;11.70;7.77;;;;;;;;;;5068182;28;20213;-90
2021/12/20 01:46:02;;;;;;;13.70;8.50;;;;;;;;;;5071365;28;20202;-90
2021/12/20 01:48:30;;;;;;;13.77;8.10;;;;;;;;;;5073077;28;20201;-90
2021/12/20 01:51:31;;;;;;;11.43;7.83;;;;;;;;;;5073466;28;20237;-90
2021/12/20 01:54:00;;;;;;;14.00;7.77;;;;;;;;;;5069379;28;20286;-89
2021/12/20 01:56:28;;;;;;;12.90;7.30;;;;;;;;;;5072471;28;20300;-89
2021/12/20 01:59:01;;;;;;;13.00;7.87;;;;;;;;;;5073087;28;20658;-90
2021/12/20 02:01:29;;;;;;;14.80;7.47;;;;;;;;;;5069823;28;20767;-90
2021/12/20 02:03:59;;;;;;;12.83;7.73;;;;;;;;;;5072190;28;20293;-90
2021/12/20 02:06:33;;;;;;;13.47;7.77;;;;;;;;;;5072748;28;20206;-90
2021/12/20 02:09:01;;;;;;;12.73;7.53;;;;;;;;;;5073300;28;20208;-90
2021/12/20 02:11:29;;;;;;;14.90;7.67;;;;;;;;;;5067491;28;20229;-90
2021/12/20 02:13:56;;;;;;;15.40;7.93;;;;;;;;;;5064308;28;20255;-90
2021/12/20 02:16:24;;;;;;;12.13;7.43;;;;;;;;;;5072343;28;20225;-90
2021/12/20 02:18:52;;;;;;;15.73;8.17;;;;;;;;;;5068990;28;20210;-90
2021/12/20 02:21:20;;;;;;;13.97;7.07;;;;;;;;;;5066835;28;20225;-90
2021/12/20 02:23:48;;;;;;;13.30;7.93;;;;;;;;;;5071738;28;20205;-90
2021/12/20 02:26:18;;;;;;;12.87;7.07;;;;;;;;;;5067683;28;20217;-90
2021/12/20 02:28:48;;;;;;;14.07;8.00;;;;;;;;;;5067715;28;20330;-90
2021/12/20 02:37:00;;;;;;;15.87;7.47;;;;;;;;;;5061755;28;20260;-90
2021/12/20 02:39:27;;;;;;;13.70;7.87;;;;;;;;;;5066253;28;20292;-90
2021/12/20 02:41:55;;;;;;;12.83;7.53;;;;;;;;;;5072481;28;20274;-90
2021/12/20 02:44:24;;;;;;;13.97;6.83;;;;;;;;;;5066303;28;20205;-90
2021/12/20 02:47:05;;;;;;;15.93;8.53;;;;;;;;;;5065562;28;20606;-90
2021/12/20 02:49:33;;;;;;;14.63;7.87;;;;;;;;;;5072636;28;20755;-90
2021/12/20 02:52:03;;;;;;;13.70;7.70;;;;;;;;;;5072413;28;20225;-90
2021/12/20 02:54:30;;;;;;;14.83;7.63;;;;;;;;;;5066123;28;20258;-90
2021/12/20 02:56:58;;;;;;;13.87;7.63;;;;;;;;;;5065098;28;20228;-91
2021/12/20 02:59:25;;;;;;;14.87;8.00;;;;;;;;;;5072362;28;20255;-90
2021/12/20 03:01:54;;;;;;;14.00;7.90;;;;;;;;;;5066144;28;20259;-90
2021/12/20 03:04:22;;;;;;;13.30;8.00;;;;;;;;;;5065978;28;20263;-90
2021/12/20 03:06:50;;;;;;;17.17;7.90;;;;;;;;;;5071501;28;20658;-90
2021/12/20 03:09:22;;;;;;;14.13;7.23;;;;;;;;;;5072286;28;20211;-90
2021/12/20 03:11:51;;;;;;;14.17;7.50;;;;;;;;;;5067698;28;20240;-90
2021/12/20 03:14:23;;;;;;;13.00;7.57;;;;;;;;;;5071786;28;20205;-90
2021/12/20 03:16:51;;;;;;;11.93;7.60;;;;;;;;;;5071183;28;20217;-90
2021/12/20 03:19:18;;;;;;;14.07;8.13;;;;;;;;;;5067393;28;20227;-90
2021/12/20 03:21:45;;;;;;;13.57;7.90;;;;;;;;;;5072287;28;20232;-90
2021/12/20 03:24:12;;;;;;;12.00;7.13;;;;;;;;;;5071107;28;20205;-90
2021/12/20 03:26:41;;;;;;;14.50;7.50;;;;;;;;;;5075713;28;20190;-90
2021/12/20 03:29:09;;;;;;;13.10;7.70;;;;;;;;;;5075872;28;20217;-90
2021/12/20 03:31:36;;;;;;;14.77;7.37;;;;;;;;;;5067879;28;20221;-89
2021/12/20 03:34:03;;;;;;;12.17;6.77;;;;;;;;;;5075036;28;20636;-90
2021/12/20 03:36:31;;;;;;;12.40;7.00;;;;;;;;;;5075491;28;20225;-91
2021/12/20 03:38:59;;;;;;;12.83;7.70;;;;;;;;;;5072826;28;20215;-90
2021/12/20 03:41:26;;;;;;;12.33;7.27;;;;;;;;;;5068804;28;20225;-90
2021/12/20 03:43:55;;;;;;;13.43;6.60;;;;;;;;;;5075648;28;20647;-90
2021/12/20 03:46:22;;;;;;;14.60;6.73;;;;;;;;;;5075559;28;20213;-90
2021/12/20 03:48:50;;;;;;;14.13;7.57;;;;;;;;;;5073203;28;20255;-90
2021/12/20 03:51:17;;;;;;;10.23;6.77;;;;;;;;;;5070781;28;20217;-90
2021/12/20 03:53:44;;;;;;;16.03;8.00;;;;;;;;;;5075604;28;20213;-90
2021/12/20 03:56:12;;;;;;;14.50;7.80;;;;;;;;;;5066776;28;20252;-90
2021/12/20 03:58:39;;;;;;;16.23;8.17;;;;;;;;;;5063800;28;20252;-90
2021/12/20 04:01:09;;;;;;;13.23;7.53;;;;;;;;;;5068630;28;20222;-90
2021/12/20 04:03:37;;;;;;;11.70;6.97;;;;;;;;;;5075019;28;20240;-90
2021/12/20 04:06:05;;;;;;;11.97;7.03;;;;;;;;;;5075158;28;20217;-90
2021/12/20 04:08:33;;;;;;;14.17;7.43;;;;;;;;;;5069459;28;20254;-90
2021/12/20 04:11:00;;;;;;;14.07;8.40;;;;;;;;;;5073343;28;20244;-90
2021/12/20 04:13:28;;;;;;;12.03;7.10;;;;;;;;;;5075029;28;20221;-90
2021/12/20 04:15:55;;;;;;;13.37;7.43;;;;;;;;;;5064194;28;20656;-91
2021/12/20 04:18:24;;;;;;;16.20;7.93;;;;;;;;;;5072179;28;20255;-90
2021/12/20 04:20:51;;;;;;;13.27;7.47;;;;;;;;;;5075008;28;20209;-90
2021/12/20 04:23:19;;;;;;;13.27;7.27;;;;;;;;;;5075189;28;20209;-90
2021/12/20 04:25:46;;;;;;;12.57;6.93;;;;;;;;;;5068119;28;20205;-90
2021/12/20 04:28:14;;;;;;;15.40;7.93;;;;;;;;;;5074234;28;20201;-90
2021/12/20 04:30:41;;;;;;;14.40;8.00;;;;;;;;;;5074763;28;20252;-90
2021/12/20 04:33:08;;;;;;;13.13;7.27;;;;;;;;;;5074952;28;20205;-90
2021/12/20 04:35:37;;;;;;;14.77;7.43;;;;;;;;;;5069192;28;20259;-90
2021/12/20 04:38:07;;;;;;;13.57;8.13;;;;;;;;;;5073579;28;20266;-91
2021/12/20 04:40:40;;;;;;;16.27;7.60;;;;;;;;;;5074306;28;20590;-90
2021/12/20 04:43:08;;;;;;;15.20;7.40;;;;;;;;;;5070683;28;20694;-90
2021/12/20 04:45:36;;;;;;;16.70;7.53;;;;;;;;;;5071084;28;20206;-90
2021/12/20 04:48:04;;;;;;;14.77;7.87;;;;;;;;;;5073978;28;20271;-90
2021/12/20 04:50:32;;;;;;;15.50;8.57;;;;;;;;;;5074937;28;20202;-90
2021/12/20 04:53:01;;;;;;;14.40;7.73;;;;;;;;;;5068998;28;20291;-90
2021/12/20 04:55:29;;;;;;;15.67;8.37;;;;;;;;;;5074355;28;20208;-90
2021/12/20 04:57:56;;;;;;;13.77;7.40;;;;;;;;;;5073367;28;20286;-90
2021/12/20 05:00:25;;;;;;;13.50;7.57;;;;;;;;;;5075417;28;20243;-90
2021/12/20 05:02:52;;;;;;;14.53;8.47;;;;;;;;;;5071946;28;20587;-90
2021/12/20 05:05:21;;;;;;;13.27;7.57;;;;;;;;;;5075970;28;20201;-90
2021/12/20 05:07:48;;;;;;;15.03;8.20;;;;;;;;;;5074531;28;20201;-90
2021/12/20 05:10:26;;;;;;;12.17;7.67;;;;;;;;;;5070574;28;20271;-90
2021/12/20 05:12:54;;;;;;;13.37;7.60;;;;;;;;;;5071129;28;20229;-90
2021/12/20 05:15:21;;;;;;;18.13;8.33;;;;;;;;;;5073946;28;20209;-90
2021/12/20 05:17:48;;;;;;;14.77;7.67;;;;;;;;;;5070669;28;20221;-90
2021/12/20 05:20:16;;;;;;;14.40;8.17;;;;;;;;;;5073717;28;20205;-90
2021/12/20 05:22:44;;;;;;;17.40;8.90;;;;;;;;;;5073953;28;20221;-90
2021/12/20 05:25:11;;;;;;;14.43;8.03;;;;;;;;;;5073938;28;20564;-90
2021/12/20 05:27:40;;;;;;;14.53;7.83;;;;;;;;;;5066342;28;20278;-90
2021/12/20 05:30:09;;;;;;;15.53;8.70;;;;;;;;;;5066306;28;20213;-90
2021/12/20 05:32:37;;;;;;;11.83;6.57;;;;;;;;;;5068135;28;20294;-91
2021/12/20 05:35:05;;;;;;;14.13;7.70;;;;;;;;;;5073319;28;20212;-91
2021/12/20 05:37:32;;;;;;;15.63;8.20;;;;;;;;;;5064866;28;20221;-90
2021/12/20 05:40:00;;;;;;;16.37;8.63;;;;;;;;;;5068706;28;20270;-90
2021/12/20 05:42:27;;;;;;;13.27;7.30;;;;;;;;;;5066196;28;20229;-90
2021/12/20 05:44:56;;;;;;;14.43;7.93;;;;;;;;;;5073445;28;20282;-91
2021/12/20 05:47:23;;;;;;;14.87;7.80;;;;;;;;;;5073684;28;20295;-91
2021/12/20 05:49:50;;;;;;;13.00;7.83;;;;;;;;;;5070461;28;20201;-92
2021/12/20 05:52:18;;;;;;;16.40;8.40;;;;;;;;;;5067077;28;20298;-91
2021/12/20 05:54:45;;;;;;;14.30;8.23;;;;;;;;;;5073200;28;20205;-91
2021/12/20 05:57:13;;;;;;;14.07;7.63;;;;;;;;;;5072162;28;20213;-90
2021/12/20 05:59:40;;;;;;;12.27;6.77;;;;;;;;;;5068576;28;20204;-91
2021/12/20 06:02:09;;;;;;;14.50;7.23;;;;;;;;;;5072371;28;20228;-91
2021/12/20 06:04:36;;;;;;;13.47;8.20;;;;;;;;;;5073201;28;20205;-91
2021/12/20 06:07:04;;;;;;;11.27;7.60;;;;;;;;;;5069879;28;20202;-90
2021/12/20 06:09:31;;;;;;;13.70;7.60;;;;;;;;;;5066929;28;20201;-91
2021/12/20 06:11:59;;;;;;;14.90;8.17;;;;;;;;;;5072554;28;20252;-91
2021/12/20 06:14:27;;;;;;;18.33;8.93;;;;;;;;;;5072815;28;20209;-91
2021/12/20 06:16:55;;;;;;;18.27;8.60;;;;;;;;;;5070482;28;20291;-91
2021/12/20 06:19:25;;;;;;;12.73;7.07;;;;;;;;;;5073039;28;20226;-91
2021/12/20 06:21:53;;;;;;;12.07;7.13;;;;;;;;;;5072648;28;20705;-91
2021/12/20 06:24:20;;;;;;;14.43;8.53;;;;;;;;;;5058504;28;20201;-91
2021/12/20 06:26:48;;;;;;;14.33;8.03;;;;;;;;;;5072642;28;20259;-91
2021/12/20 06:29:16;;;;;;;13.33;7.67;;;;;;;;;;5076113;28;20209;-94
2021/12/20 06:31:43;;;;;;;13.70;7.83;;;;;;;;;;5077589;28;20225;-94
2021/12/20 06:34:10;;;;;;;13.37;7.90;;;;;;;;;;5063753;28;20209;-94
2021/12/20 06:36:39;;;;;;;16.70;8.33;;;;;;;;;;5071874;28;20243;-94
2021/12/20 06:39:06;;;;;;;14.70;8.37;;;;;;;;;;5072622;28;20427;-93
2021/12/20 06:41:34;;;;;;;14.37;7.77;;;;;;;;;;5069988;28;20221;-93
2021/12/20 06:44:04;;;;;;;16.30;8.27;;;;;;;;;;5073956;28;20209;-93
2021/12/20 06:46:32;;;;;;;14.13;8.47;;;;;;;;;;5072720;28;20205;-93
2021/12/20 06:48:59;;;;;;;17.40;9.00;;;;;;;;;;5072848;28;20284;-93
2021/12/20 06:51:26;;;;;;;15.70;8.73;;;;;;;;;;5068841;28;20224;-93
2021/12/20 06:53:55;;;;;;;17.07;8.73;;;;;;;;;;5068181;28;20650;-93
2021/12/20 06:56:23;;;;;;;12.97;8.07;;;;;;;;;;5072283;28;20244;-94
2021/12/20 06:58:53;;;;;;;13.87;7.30;;;;;;;;;;5068740;28;20202;-93
2021/12/20 07:01:20;;;;;;;13.67;7.20;;;;;;;;;;5065311;28;20225;-93
2021/12/20 07:03:48;;;;;;;13.13;8.40;;;;;;;;;;5072316;28;20209;-93
2021/12/20 07:06:15;;;;;;;12.87;7.53;;;;;;;;;;5072726;28;20247;-93
2021/12/20 07:08:42;;;;;;;16.47;7.47;;;;;;;;;;5063706;28;20244;-93
2021/12/20 07:11:11;;;;;;;12.07;7.40;;;;;;;;;;5071669;28;20220;-93
2021/12/20 07:13:39;;;;;;;13.17;7.83;;;;;;;;;;5072578;28;20209;-93
2021/12/20 07:16:07;;;;;;;13.87;8.40;;;;;;;;;;5072700;28;20208;-94
2021/12/20 07:18:35;;;;;;;13.30;7.70;;;;;;;;;;5069349;28;20266;-93
2021/12/20 07:21:02;;;;;;;14.37;8.30;;;;;;;;;;5071042;28;20225;-93
2021/12/20 07:23:29;;;;;;;15.13;8.33;;;;;;;;;;5072011;28;20201;-93
2021/12/20 07:25:57;;;;;;;14.67;8.00;;;;;;;;;;5067119;28;20268;-93
2021/12/20 07:28:25;;;;;;;14.20;7.70;;;;;;;;;;5068709;28;20205;-93
2021/12/20 07:30:53;;;;;;;14.50;8.63;;;;;;;;;;5071912;28;20209;-93
2021/12/20 07:33:20;;;;;;;14.70;8.27;;;;;;;;;;5072652;28;20205;-93
2021/12/20 07:35:49;;;;;;;15.57;8.47;;;;;;;;;;5063171;28;20233;-93
2021/12/20 07:38:16;;;;;;;17.33;8.70;;;;;;;;;;5063865;28;20263;-94
2021/12/20 07:40:44;;;;;;;15.60;9.27;;;;;;;;;;5072201;28;20209;-93
2021/12/20 07:43:11;;;;;;;13.60;8.00;;;;;;;;;;5071594;28;20711;-93
2021/12/20 07:45:40;;;;;;;16.53;8.33;;;;;;;;;;5060203;28;20264;-93
2021/12/20 07:48:07;;;;;;;13.97;8.13;;;;;;;;;;5071571;28;20209;-93
2021/12/20 07:50:35;;;;;;;14.33;8.33;;;;;;;;;;5068966;28;20225;-93
2021/12/20 07:53:02;;;;;;;13.93;8.40;;;;;;;;;;5068226;28;20255;-93
2021/12/20 07:55:30;;;;;;;14.40;8.40;;;;;;;;;;5072383;28;20263;-93
2021/12/20 07:57:57;;;;;;;15.07;7.87;;;;;;;;;;5066990;28;20213;-94
2021/12/20 08:00:25;;;;;;;16.27;8.37;;;;;;;;;;5071265;28;20196;-93
2021/12/20 08:02:56;;;;;;;17.10;8.40;;;;;;;;;;5070725;28;20238;-93
2021/12/20 08:05:23;;;;;;;13.70;8.57;;;;;;;;;;5055973;28;20214;-93
2021/12/20 08:07:51;;;;;;;16.90;8.80;;;;;;;;;;5069101;28;20209;-93
2021/12/20 08:10:28;;;;;;;17.93;8.97;;;;;;;;;;5082771;28;20228;-93
2021/12/20 08:12:55;;;;;;;19.93;9.30;;;;;;;;;;5068577;28;20260;-93
2021/12/20 08:15:23;;;;;;;18.27;9.83;;;;;;;;;;5061018;28;20197;-93
2021/12/20 08:17:50;;;;;;;16.37;8.40;;;;;;;;;;5071998;28;20210;-93
2021/12/20 08:20:19;;;;;;;15.73;8.83;;;;;;;;;;5075270;28;20262;-93
2021/12/20 08:22:49;;;;;;;17.40;9.73;;;;;;;;;;5075152;28;20241;-92
2021/12/20 08:25:18;;;;;;;18.87;9.53;;;;;;;;;;5067849;28;20205;-93
2021/12/20 08:28:03;;;;;;;17.67;8.83;;;;;;;;;;5069760;28;20205;-93
2021/12/20 08:30:30;;;;;;;14.63;8.57;;;;;;;;;;5068746;28;20197;-93
2021/12/20 08:33:02;;;;;;;17.37;8.80;;;;;;;;;;5060874;28;20233;-93
2021/12/20 08:35:32;;;;;;;15.83;9.03;;;;;;;;;;5055257;28;20217;-92
2021/12/20 08:37:59;;;;;;;15.20;8.67;;;;;;;;;;5067630;28;20229;-93
2021/12/20 08:40:32;;;;;;;15.53;9.13;;;;;;;;;;5069020;28;20205;-92
2021/12/20 08:43:01;;;;;;;17.60;9.10;;;;;;;;;;5066901;28;20240;-93
2021/12/20 08:45:28;;;;;;;14.50;8.27;;;;;;;;;;5071658;28;20193;-93
2021/12/20 08:47:56;;;;;;;17.03;8.67;;;;;;;;;;5073685;28;20205;-93
2021/12/20 08:50:24;;;;;;;15.20;8.03;;;;;;;;;;5072809;28;20555;-93
2021/12/20 08:52:57;;;;;;;17.40;9.13;;;;;;;;;;5076800;28;20221;-93
2021/12/20 08:55:25;;;;;;;19.60;10.47;;;;;;;;;;5079927;28;20678;-93
2021/12/20 08:57:53;;;;;;;17.00;9.37;;;;;;;;;;5074376;28;20209;-93
2021/12/20 09:00:22;;;;;;;17.73;9.53;;;;;;;;;;5065610;28;20201;-93
2021/12/20 09:02:49;;;;;;;16.17;8.93;;;;;;;;;;5073996;28;20283;-93
2021/12/20 09:05:17;;;;;;;19.10;9.73;;;;;;;;;;5058096;28;20959;-93
2021/12/20 09:07:45;;;;;;;19.07;9.60;;;;;;;;;;5073102;28;20248;-93
2021/12/20 09:10:14;;;;;;;21.57;10.50;;;;;;;;;;5062167;28;20206;-93
2021/12/20 09:12:42;;;;;;;16.73;9.63;;;;;;;;;;5073157;28;20220;-93
2021/12/20 09:15:14;;;;;;;16.57;9.47;;;;;;;;;;5074208;28;20217;-93
2021/12/20 09:17:42;;;;;;;16.67;8.57;;;;;;;;;;5065108;28;20222;-92
2021/12/20 09:20:10;;;;;;;18.70;9.27;;;;;;;;;;5073462;28;20216;-93
2021/12/20 09:22:48;;;;;;;16.30;9.37;;;;;;;;;;5075436;28;20225;-93
2021/12/20 09:25:17;;;;;;;16.83;9.53;;;;;;;;;;5070217;28;20287;-93
2021/12/20 09:27:45;;;;;;;16.57;9.23;;;;;;;;;;5073530;28;20708;-92
2021/12/20 09:30:13;;;;;;;16.00;9.27;;;;;;;;;;5065473;28;20303;-92
2021/12/20 09:32:46;;;;;;;18.50;10.13;;;;;;;;;;5072882;28;20638;-92
2021/12/20 09:35:14;;;;;;;16.20;9.10;;;;;;;;;;5060262;28;20295;-93
2021/12/20 09:37:41;;;;;;;14.97;11.10;;;;;;;;;;5073495;28;20267;-92
2021/12/20 09:40:12;;;;;;;18.47;9.87;;;;;;;;;;5073643;28;20208;-92
2021/12/20 09:42:45;;;;;;;21.50;11.10;;;;;;;;;;5068031;28;20221;-92
2021/12/20 09:45:12;;;;;;;18.93;10.00;;;;;;;;;;5069144;28;20240;-92
2021/12/20 09:47:40;;;;;;;17.57;10.27;;;;;;;;;;5073047;28;20542;-92
2021/12/20 09:50:08;;;;;;;24.40;10.63;;;;;;;;;;5062827;28;20323;-92
2021/12/20 09:52:35;;;;;;;17.23;9.67;;;;;;;;;;5068099;28;20706;-92
2021/12/20 09:55:03;;;;;;;18.77;10.97;;;;;;;;;;5073390;28;20205;-92
2021/12/20 09:57:31;;;;;;;17.67;9.73;;;;;;;;;;5062336;28;20210;-92
2021/12/20 10:00:02;;;;;;;18.90;10.00;;;;;;;;;;5067704;28;20213;-92
2021/12/20 10:02:29;;;;;;;17.60;10.87;;;;;;;;;;5072814;28;20244;-92
2021/12/20 10:04:57;;;;;;;17.97;10.03;;;;;;;;;;5068254;28;20206;-91
2021/12/20 10:07:26;;;;;;;20.77;10.93;;;;;;;;;;5059547;28;20201;-92
2021/12/20 10:09:53;;;;;;;20.83;11.07;;;;;;;;;;5072561;28;20212;-92
2021/12/20 10:12:22;;;;;;;17.57;9.93;;;;;;;;;;5073388;28;20283;-92
2021/12/20 10:15:05;;;;;;;18.23;9.73;;;;;;;;;;5063053;28;20264;-92
2021/12/20 10:17:35;;;;;;;21.27;12.23;;;;;;;;;;5072419;28;20201;-92
2021/12/20 10:20:16;;;;;;;20.23;11.97;;;;;;;;;;5072845;28;20205;-92
2021/12/20 10:22:43;;;;;;;20.73;11.20;;;;;;;;;;5071147;28;20373;-93
2021/12/20 10:25:26;;;;;;;19.27;11.10;;;;;;;;;;5065057;28;20778;-92
2021/12/20 10:27:53;;;;;;;20.23;11.07;;;;;;;;;;5070156;28;20235;-92
2021/12/20 10:30:23;;;;;;;23.43;11.57;;;;;;;;;;5072855;28;20270;-92
2021/12/20 10:32:51;;;;;;;20.87;11.43;;;;;;;;;;5060873;28;20713;-92
2021/12/20 10:35:35;;;;;;;20.80;11.53;;;;;;;;;;5068214;28;20231;-92
2021/12/20 10:38:04;;;;;;;21.23;11.07;;;;;;;;;;5072474;28;20217;-92
2021/12/20 10:40:31;;;;;;;21.07;11.63;;;;;;;;;;5072353;28;20650;-91
2021/12/20 10:43:00;;;;;;;21.20;10.17;;;;;;;;;;5055235;28;20238;-92
2021/12/20 10:45:29;;;;;;;19.37;10.50;;;;;;;;;;5066214;28;20201;-92
2021/12/20 10:47:56;;;;;;;19.33;11.37;;;;;;;;;;5072366;28;20250;-92
2021/12/20 10:50:25;;;;;;;17.17;10.73;;;;;;;;;;5066038;28;20205;-92
2021/12/20 10:52:52;;;;;;;22.87;11.63;;;;;;;;;;5069432;28;20225;-92
2021/12/20 10:55:35;;;;;;;21.83;11.60;;;;;;;;;;5072461;28;20205;-92
2021/12/20 10:58:16;;;;;;;21.03;11.23;;;;;;;;;;5068571;28;20221;-92
2021/12/20 11:00:45;;;;;;;18.43;10.97;;;;;;;;;;5052883;28;20651;-92
2021/12/20 11:03:26;;;;;;;22.30;11.20;;;;;;;;;;5063948;28;20209;-92
2021/12/20 11:11:29;;;;;;;21.73;12.83;;;;;;;;;;5066004;28;20220;-92
2021/12/20 11:13:57;;;;;;;21.80;10.43;;;;;;;;;;5072336;28;20632;-92
2021/12/20 11:16:31;;;;;;;19.23;10.37;;;;;;;;;;5064705;28;20213;-93
2021/12/20 11:19:11;;;;;;;20.23;10.60;;;;;;;;;;5071494;28;20743;-92
2021/12/20 11:21:39;;;;;;;17.97;9.03;;;;;;;;;;5072325;28;20229;-93
2021/12/20 11:24:12;;;;;;;16.23;9.63;;;;;;;;;;5062988;28;20288;-92
2021/12/20 11:26:39;;;;;;;21.50;10.73;;;;;;;;;;5060310;28;20213;-92
2021/12/20 11:29:07;;;;;;;18.57;9.70;;;;;;;;;;5071486;28;20666;-92
2021/12/20 11:31:39;;;;;;;16.57;8.40;;;;;;;;;;5069127;28;20747;-92
2021/12/20 11:34:07;;;;;;;19.43;9.17;;;;;;;;;;5063817;28;20206;-92
2021/12/20 11:36:35;;;;;;;18.30;9.40;;;;;;;;;;5073399;28;20229;-92
2021/12/20 11:39:03;;;;;;;17.13;9.07;;;;;;;;;;5075674;28;20217;-91
2021/12/20 11:41:31;;;;;;;15.30;8.23;;;;;;;;;;5064146;28;20878;-92
2021/12/20 11:43:59;;;;;;;17.20;9.13;;;;;;;;;;5076009;28;20204;-93
2021/12/20 11:46:31;;;;;;;16.10;8.43;;;;;;;;;;5075989;28;20235;-92
2021/12/20 11:48:59;;;;;;;16.37;8.93;;;;;;;;;;5073538;28;20201;-92
2021/12/20 11:51:27;;;;;;;17.20;8.37;;;;;;;;;;5067408;28;20229;-92
2021/12/20 11:53:54;;;;;;;17.27;8.20;;;;;;;;;;5081368;28;20196;-92
2021/12/20 11:56:36;;;;;;;14.57;7.97;;;;;;;;;;5068627;28;20201;-92
2021/12/20 11:59:04;;;;;;;17.20;8.43;;;;;;;;;;5069877;28;20245;-92
2021/12/20 12:01:32;;;;;;;16.60;7.93;;;;;;;;;;5074991;28;20251;-92
2021/12/20 12:04:01;;;;;;;14.10;7.70;;;;;;;;;;5075237;28;20236;-91
2021/12/20 12:06:29;;;;;;;15.77;8.40;;;;;;;;;;5065990;28;20202;-92
2021/12/20 12:08:58;;;;;;;16.57;8.13;;;;;;;;;;5072921;28;20198;-93
2021/12/20 12:11:33;;;;;;;17.93;8.30;;;;;;;;;;5075230;28;20229;-92
2021/12/20 12:14:23;;;;;;;14.20;7.67;;;;;;;;;;5073077;28;20217;-93
2021/12/20 12:16:53;;;;;;;18.17;8.37;;;;;;;;;;5067644;28;20209;-92
2021/12/20 12:19:35;;;;;;;15.83;8.43;;;;;;;;;;5074552;28;20217;-92
2021/12/20 12:22:04;;;;;;;13.23;7.17;;;;;;;;;;5072511;28;20249;-90
2021/12/20 12:24:45;;;;;;;14.90;7.63;;;;;;;;;;5063875;28;20213;-92
2021/12/20 12:27:22;;;;;;;22.80;11.03;;;;;;;;;;5065818;28;20706;-92
2021/12/20 12:30:04;;;;;;;12.63;6.50;;;;;;;;;;5074875;28;20617;-91
2021/12/20 12:32:33;;;;;;;13.60;7.13;;;;;;;;;;5067983;28;20225;-92
2021/12/20 12:35:01;;;;;;;14.37;8.07;;;;;;;;;;5071360;28;20251;-92
2021/12/20 12:37:34;;;;;;;14.87;7.23;;;;;;;;;;5074274;28;20271;-91
2021/12/20 12:40:16;;;;;;;11.10;6.33;;;;;;;;;;5074604;28;20274;-92
2021/12/20 12:42:57;;;;;;;10.73;6.17;;;;;;;;;;5064851;28;20229;-92
2021/12/20 12:45:39;;;;;;;12.03;6.37;;;;;;;;;;5074455;28;20201;-93
2021/12/20 12:48:21;;;;;;;13.43;6.37;;;;;;;;;;5073878;28;20205;-92
2021/12/20 12:50:48;;;;;;;14.87;6.30;;;;;;;;;;5052518;28;20263;-92
2021/12/20 12:53:30;;;;;;;8.83;4.67;;;;;;;;;;5074581;28;20201;-91
2021/12/20 12:56:19;;;;;;;9.50;5.37;;;;;;;;;;5078247;28;20193;-90
2021/12/20 12:58:46;;;;;;;7.07;4.30;;;;;;;;;;5074450;28;20225;-92
2021/12/20 13:01:21;;;;;;;11.00;3.90;;;;;;;;;;5063098;28;20249;-92
2021/12/20 13:03:49;;;;;;;8.27;4.60;;;;;;;;;;5070654;28;20232;-92
2021/12/20 13:06:19;;;;;;;8.57;4.60;;;;;;;;;;5074139;28;20238;-92
2021/12/20 13:08:53;;;;;;;9.50;4.70;;;;;;;;;;5066610;28;20202;-89
2021/12/20 13:11:25;;;;;;;9.70;5.60;;;;;;;;;;5062425;28;20304;-92
2021/12/20 13:14:06;;;;;;;11.20;4.83;;;;;;;;;;5073839;28;20208;-92
2021/12/20 13:16:36;;;;;;;12.67;5.10;;;;;;;;;;5070459;28;20646;-92
2021/12/20 13:19:05;;;;;;;8.17;4.70;;;;;;;;;;5068800;28;20299;-92
2021/12/20 13:21:49;;;;;;;7.37;4.00;;;;;;;;;;5073682;28;20620;-92
2021/12/20 13:24:16;;;;;;;8.70;4.43;;;;;;;;;;5074212;28;20216;-92
2021/12/20 13:26:46;;;;;;;11.43;5.07;;;;;;;;;;5068138;28;20202;-91
2021/12/20 13:29:17;;;;;;;13.80;4.50;;;;;;;;;;5067337;28;20278;-91
2021/12/20 13:31:44;;;;;;;8.77;4.63;;;;;;;;;;5073362;28;20225;-92
2021/12/20 13:34:14;;;;;;;11.27;4.50;;;;;;;;;;5073715;28;20220;-92
2021/12/20 13:36:50;;;;;;;9.50;3.93;;;;;;;;;;5068534;28;20214;-92
2021/12/20 13:39:18;;;;;;;9.57;4.50;;;;;;;;;;5061256;28;20255;-91
2021/12/20 13:41:47;;;;;;;8.40;4.10;;;;;;;;;;5073024;28;20237;-92
2021/12/20 13:44:20;;;;;;;12.10;5.40;;;;;;;;;;5068962;28;20655;-91
2021/12/20 13:46:49;;;;;;;6.77;4.30;;;;;;;;;;5066716;28;20225;-89
2021/12/20 13:49:18;;;;;;;8.57;3.77;;;;;;;;;;5073175;28;20280;-90
2021/12/20 13:51:47;;;;;;;8.73;4.20;;;;;;;;;;5074281;28;20271;-90
2021/12/20 13:54:16;;;;;;;8.73;3.97;;;;;;;;;;5067746;28;20224;-90
2021/12/20 13:56:43;;;;;;;8.03;4.60;;;;;;;;;;5062694;28;20279;-91
2021/12/20 13:59:12;;;;;;;8.13;4.30;;;;;;;;;;5068376;28;20225;-90
2021/12/20 14:01:40;;;;;;;8.73;3.67;;;;;;;;;;5073033;28;20373;-90
2021/12/20 14:04:07;;;;;;;12.60;4.53;;;;;;;;;;5073168;28;20619;-90
2021/12/20 14:06:39;;;;;;;9.43;4.57;;;;;;;;;;5058051;28;20275;-90
2021/12/20 14:09:09;;;;;;;5.43;3.20;;;;;;;;;;5063311;28;20205;-90
2021/12/20 14:11:36;;;;;;;9.20;3.77;;;;;;;;;;5072766;28;20624;-90
2021/12/20 14:14:11;;;;;;;13.37;4.80;;;;;;;;;;5069499;28;20262;-90
2021/12/20 14:16:58;;;;;;;9.47;4.37;;;;;;;;;;5067683;28;20338;-90
2021/12/20 14:19:40;;;;;;;7.57;3.87;;;;;;;;;;5066205;28;20245;-91
2021/12/20 14:22:07;;;;;;;8.27;3.87;;;;;;;;;;5059410;28;20229;-91
2021/12/20 14:24:43;;;;;;;7.87;3.60;;;;;;;;;;5065392;28;20292;-90
2021/12/20 14:27:10;;;;;;;8.50;3.27;;;;;;;;;;5071916;28;20204;-90
2021/12/20 14:29:39;;;;;;;7.27;3.00;;;;;;;;;;5072860;28;20252;-90
2021/12/20 14:32:09;;;;;;;9.43;3.33;;;;;;;;;;5069803;28;20381;-90
2021/12/20 14:34:38;;;;;;;4.70;2.50;;;;;;;;;;5061200;28;20210;-90
2021/12/20 14:37:09;;;;;;;5.13;3.10;;;;;;;;;;5071274;28;20285;-91
2021/12/20 14:39:42;;;;;;;10.67;4.03;;;;;;;;;;5072660;28;20217;-89
2021/12/20 14:42:09;;;;;;;8.40;3.37;;;;;;;;;;5068491;28;20705;-90
2021/12/20 14:44:52;;;;;;;5.43;3.17;;;;;;;;;;5071904;28;20658;-91
2021/12/20 14:47:27;;;;;;;6.13;2.63;;;;;;;;;;5072357;28;20193;-90
2021/12/20 14:49:58;;;;;;;3.53;2.50;;;;;;;;;;5069259;28;20280;-90
2021/12/20 14:52:28;;;;;;;6.13;3.00;;;;;;;;;;5072218;28;20221;-90
2021/12/20 14:54:56;;;;;;;7.77;3.00;;;;;;;;;;5072601;28;20232;-90
2021/12/20 14:57:25;;;;;;;8.23;3.20;;;;;;;;;;5072502;28;20209;-91
2021/12/20 14:59:53;;;;;;;5.67;3.37;;;;;;;;;;5061615;28;20304;-90